Terminal Aerodrome Forecast
Issued by NWS

Home | Current Version | Previous Version | Text Only | Print | Product List | Glossary Off
Versions: 1 2 3 4 5 6 7 8 9 10 11 12 13 14 15 16 17 18 19 20 21 22 23 24 25 26 27 28 29 30 31 32 33

000
FTUS43 KGRB 182000 AAA
TAFRHI
TAF AMD
KRHI 182040Z 1821/1918 28012G15KT P6SM -SN SCT025 BKN035
     FM190000 25007KT P6SM -SN SCT025 BKN030
     FM190500 22005KT P6SM -SN BKN025 BKN100
     FM191000 19005KT 5SM -SN BKN015 OVC035
      TEMPO 1910/1914 1 1/2SM -SN
     FM191600 26010KT P6SM -SN BKN022 BKN040=

USA.gov is the U.S. government's official web portal to all federal, state and local government web resources and services.